createdAt,value
2018-12-27T13:40:44.637Z,83.90
2018-12-27T13:43:15.055Z,85.60
2018-12-27T13:45:45.554Z,86.70
2018-12-27T13:48:15.827Z,87.40
2018-12-27T13:50:46.134Z,87.10
2018-12-27T13:53:16.474Z,87.40
2018-12-27T13:55:46.687Z,87.50
2018-12-27T13:58:17.022Z,87.70
2018-12-27T14:00:47.542Z,87.90
2018-12-27T14:03:19.242Z,87.90
2018-12-27T14:05:51.115Z,88.00
2018-12-27T14:08:21.776Z,88.10
2018-12-27T14:10:52.035Z,88.00
2018-12-27T14:13:22.473Z,88.80
2018-12-27T14:15:52.914Z,88.90
2018-12-27T14:18:32.398Z,87.90
2018-12-27T14:21:02.743Z,87.70
2018-12-27T14:23:33.030Z,88.10
2018-12-27T14:26:03.416Z,88.00
2018-12-27T14:28:33.504Z,88.00
2018-12-27T14:31:03.897Z,87.90
2018-12-27T14:33:34.537Z,88.10
2018-12-27T14:36:04.507Z,87.90
2018-12-27T14:38:34.820Z,87.90
2018-12-27T14:41:05.122Z,87.80
2018-12-27T14:43:35.135Z,87.70
2018-12-27T14:46:05.384Z,87.70
2018-12-27T14:48:35.567Z,87.80
2018-12-27T14:51:06.066Z,87.70
2018-12-27T14:53:36.291Z,80.10
2018-12-27T14:56:06.280Z,83.30
2018-12-27T14:58:36.569Z,87.70
2018-12-27T15:01:06.768Z,90.00
2018-12-27T15:03:39.939Z,90.10
2018-12-27T15:06:10.223Z,87.90
2018-12-27T15:08:40.453Z,85.20
2018-12-27T15:11:10.749Z,87.60
2018-12-27T15:13:40.944Z,86.20
2018-12-27T15:16:12.786Z,87.10
2018-12-27T15:18:42.813Z,86.00
2018-12-27T15:21:12.974Z,84.40
2018-12-27T15:23:42.967Z,85.40
2018-12-27T15:26:13.189Z,86.70
2018-12-27T15:28:43.505Z,81.80
2018-12-27T15:31:13.831Z,83.00
2018-12-27T15:33:43.839Z,84.30
2018-12-27T15:36:14.044Z,85.10
2018-12-27T15:38:44.343Z,84.70
2018-12-27T15:41:14.849Z,81.70
2018-12-27T15:43:45.216Z,81.30
2018-12-27T15:46:15.262Z,80.10
2018-12-27T15:48:45.264Z,78.20
2018-12-27T15:51:15.331Z,78.00
2018-12-27T15:56:29.332Z,77.70
2018-12-27T15:59:01.316Z,77.10
2018-12-27T16:01:34.396Z,85.10
2018-12-27T16:04:04.051Z,84.50
2018-12-27T16:06:34.267Z,83.90
2018-12-27T16:09:06.188Z,83.10
2018-12-27T16:11:38.038Z,82.90
2018-12-27T16:14:25.975Z,82.70
2018-12-27T16:17:00.580Z,82.60
2018-12-27T16:19:30.993Z,83.00
2018-12-27T16:22:01.563Z,83.40
2018-12-27T16:24:32.414Z,83.00
2018-12-27T16:27:02.865Z,83.20
2018-12-27T16:30:15.728Z,83.60
2018-12-27T16:32:46.154Z,76.00
2018-12-27T16:35:16.155Z,75.80
2018-12-27T16:37:46.696Z,77.10
2018-12-27T16:40:16.760Z,77.80
2018-12-27T16:42:47.815Z,75.80
2018-12-27T16:45:19.240Z,82.50
2018-12-27T16:47:50.270Z,84.80
2018-12-27T16:50:20.509Z,83.40
2018-12-27T16:52:50.608Z,82.20
2018-12-27T16:55:20.935Z,81.60
2018-12-27T16:57:51.175Z,81.10
2018-12-27T17:00:21.445Z,81.00
2018-12-27T17:02:52.435Z,81.00
2018-12-27T17:05:22.760Z,81.40
2018-12-27T17:07:53.518Z,81.30
2018-12-27T17:10:23.810Z,81.50
2018-12-27T17:12:54.920Z,81.70
2018-12-27T17:15:25.137Z,81.70
2018-12-27T17:17:55.403Z,81.70
2018-12-27T17:20:26.191Z,82.10
2018-12-27T17:22:57.270Z,82.20
2018-12-27T17:25:28.191Z,82.20
2018-12-27T17:27:58.411Z,82.50
2018-12-27T17:30:29.038Z,82.70
2018-12-27T17:32:59.476Z,82.90
2018-12-27T17:35:29.755Z,82.90
2018-12-27T17:38:00.368Z,83.00
2018-12-27T17:40:34.161Z,83.20
2018-12-27T17:43:15.768Z,82.70
2018-12-27T17:45:46.683Z,83.00
2018-12-27T17:48:17.464Z,83.20
2018-12-27T17:50:47.981Z,83.00
2018-12-27T17:53:19.171Z,82.80
2018-12-27T17:55:50.522Z,82.60
2018-12-27T17:58:21.093Z,82.30
2018-12-27T18:00:52.101Z,82.30
2018-12-27T18:03:24.306Z,82.30
2018-12-27T18:05:55.070Z,82.60
2018-12-27T18:08:26.056Z,82.70
2018-12-27T18:11:17.090Z,82.90
2018-12-27T18:13:47.887Z,83.00
2018-12-27T18:16:18.206Z,83.00
2018-12-27T18:18:48.959Z,83.10
2018-12-27T18:21:20.128Z,83.10
2018-12-27T18:23:50.931Z,83.10
2018-12-27T18:26:21.863Z,83.10
2018-12-27T18:28:52.688Z,83.80
2018-12-27T18:31:23.465Z,83.10
2018-12-27T18:33:54.150Z,83.10
2018-12-27T18:36:24.998Z,83.10
2018-12-27T18:38:56.127Z,83.10
2018-12-27T18:41:26.886Z,83.00
2018-12-27T18:43:57.759Z,82.60
2018-12-27T18:46:28.002Z,81.40
2018-12-27T18:48:58.898Z,81.00
2018-12-27T18:51:29.754Z,79.70
2018-12-27T18:54:00.635Z,79.60
2018-12-27T18:56:31.187Z,80.00
2018-12-27T18:59:02.001Z,79.80
2018-12-27T19:01:32.808Z,79.80
2018-12-27T19:04:03.502Z,80.20
2018-12-27T19:06:34.374Z,80.80
2018-12-27T19:09:07.115Z,81.00
2018-12-27T19:12:13.566Z,82.40
2018-12-27T19:14:45.278Z,82.50
2018-12-27T19:17:18.941Z,82.60
2018-12-27T19:19:52.259Z,82.60
2018-12-27T19:22:29.335Z,83.20
2018-12-27T19:25:02.162Z,83.60
2018-12-27T19:27:32.778Z,85.00
2018-12-27T19:30:03.662Z,84.50
2018-12-27T19:32:35.759Z,84.80
2018-12-27T19:35:06.781Z,85.10
2018-12-27T19:37:37.362Z,85.40
2018-12-27T19:40:08.187Z,85.80
2018-12-27T19:42:41.925Z,86.30
2018-12-27T19:49:43.270Z,86.50
2018-12-27T19:52:14.241Z,86.90
2018-12-27T19:54:44.960Z,87.00
2018-12-27T19:57:17.438Z,87.40
2018-12-27T19:59:54.050Z,87.60
2018-12-27T20:02:24.716Z,87.80
2018-12-27T20:04:55.422Z,88.20
2018-12-27T20:07:26.355Z,87.90
2018-12-27T20:09:57.010Z,88.00
2018-12-27T20:12:27.825Z,88.00
2018-12-27T20:14:59.499Z,88.10
2018-12-27T20:17:30.131Z,88.20
2018-12-27T20:20:00.798Z,87.90
2018-12-27T20:22:31.852Z,88.00
2018-12-27T20:25:02.675Z,87.90
2018-12-27T20:27:33.513Z,87.90
2018-12-27T20:30:05.192Z,87.90
2018-12-27T20:32:36.181Z,88.00
2018-12-27T20:35:07.168Z,88.00
2018-12-27T20:37:38.019Z,88.20
2018-12-27T20:40:08.731Z,88.00
2018-12-27T20:42:40.907Z,88.80
2018-12-27T20:45:11.559Z,88.40
2018-12-27T20:47:42.410Z,88.50
2018-12-27T20:50:13.219Z,88.30
2018-12-27T20:52:44.588Z,88.40
2018-12-27T20:55:15.659Z,88.30
2018-12-27T20:57:46.779Z,88.20
2018-12-27T21:00:18.217Z,88.10
2018-12-27T21:02:49.250Z,88.20
2018-12-27T21:05:20.149Z,88.10
2018-12-27T21:07:51.506Z,88.00
2018-12-27T21:10:22.311Z,88.00
2018-12-27T21:12:54.950Z,87.90
2018-12-27T21:15:30.188Z,88.10
2018-12-27T21:18:02.419Z,88.30
2018-12-27T21:20:33.252Z,88.20
2018-12-27T21:24:54.171Z,79.10
2018-12-27T21:27:26.362Z,76.20
2018-12-27T21:29:56.978Z,77.00
2018-12-27T21:32:27.741Z,79.00
2018-12-27T21:34:58.578Z,83.80
2018-12-27T21:37:30.499Z,90.30
2018-12-27T21:40:00.981Z,88.20
2018-12-27T21:42:31.370Z,86.30
2018-12-27T21:45:02.218Z,85.10
2018-12-27T21:47:32.731Z,84.60
2018-12-27T21:50:03.576Z,84.50
2018-12-27T21:52:34.610Z,84.60
2018-12-27T21:55:05.533Z,84.70
2018-12-27T21:57:36.287Z,85.10
2018-12-27T22:00:09.371Z,85.40
2018-12-27T22:02:41.611Z,85.50
2018-12-27T22:05:12.608Z,85.70
2018-12-27T22:07:43.530Z,86.20
2018-12-27T22:10:13.932Z,86.50
2018-12-27T22:12:44.659Z,86.50
2018-12-27T22:15:15.385Z,86.60
2018-12-27T22:17:46.328Z,86.90
2018-12-27T22:20:17.658Z,87.80
2018-12-27T22:22:48.778Z,87.30
2018-12-27T22:25:19.976Z,87.60
2018-12-27T22:27:51.409Z,87.80
2018-12-27T22:30:22.593Z,88.00
2018-12-27T22:32:53.215Z,88.30
2018-12-27T22:35:25.806Z,88.60
2018-12-27T22:38:07.684Z,88.70
2018-12-27T22:40:39.060Z,88.90
2018-12-27T22:43:09.691Z,89.40
2018-12-27T22:45:40.016Z,89.80
2018-12-27T22:48:10.915Z,90.00
2018-12-27T22:50:41.731Z,90.10
2018-12-27T22:53:12.370Z,90.20
2018-12-27T22:55:45.766Z,90.40
2018-12-27T22:58:35.459Z,90.50
2018-12-27T23:01:06.708Z,90.70
2018-12-27T23:03:38.210Z,90.80
2018-12-27T23:06:09.603Z,90.80
2018-12-27T23:08:43.282Z,90.90
2018-12-27T23:11:13.021Z,91.00
2018-12-27T23:13:44.078Z,91.10
2018-12-27T23:16:15.541Z,91.30
2018-12-27T23:18:46.270Z,91.30
2018-12-27T23:21:16.531Z,91.40
2018-12-27T23:23:46.833Z,91.40
2018-12-27T23:26:20.413Z,91.50
2018-12-27T23:28:51.062Z,91.50
2018-12-27T23:31:42.146Z,91.60
2018-12-27T23:34:15.291Z,91.60
2018-12-27T23:36:45.598Z,91.70
2018-12-27T23:39:17.183Z,91.70
2018-12-27T23:41:49.611Z,91.70
2018-12-27T23:44:20.250Z,91.80
2018-12-27T23:46:51.155Z,91.90
2018-12-27T23:49:21.619Z,92.10
2018-12-27T23:51:51.751Z,92.10
2018-12-27T23:54:22.111Z,92.20
2018-12-27T23:56:55.308Z,92.30
2018-12-27T23:59:25.683Z,92.40
